sensor_id;sensor_type;location;lat;lon;timestamp;temperature;humidity
66144;SHT31;52947;50.842;6.084;2023-09-19T00:01:08;16.43;89.03
66144;SHT31;52947;50.842;6.084;2023-09-19T00:03:38;16.71;88.76
66144;SHT31;52947;50.842;6.084;2023-09-19T00:06:10;16.69;87.80
66144;SHT31;52947;50.842;6.084;2023-09-19T00:08:39;16.59;89.18
66144;SHT31;52947;50.842;6.084;2023-09-19T00:11:10;16.43;88.25
66144;SHT31;52947;50.842;6.084;2023-09-19T00:13:38;16.50;88.42
66144;SHT31;52947;50.842;6.084;2023-09-19T00:16:11;16.52;88.38
66144;SHT31;52947;50.842;6.084;2023-09-19T00:18:39;16.42;88.42
66144;SHT31;52947;50.842;6.084;2023-09-19T00:21:07;16.34;88.23
66144;SHT31;52947;50.842;6.084;2023-09-19T00:23:38;16.40;88.08
66144;SHT31;52947;50.842;6.084;2023-09-19T00:26:07;16.32;87.93
66144;SHT31;52947;50.842;6.084;2023-09-19T00:28:36;16.22;88.43
66144;SHT31;52947;50.842;6.084;2023-09-19T00:31:04;16.32;88.39
66144;SHT31;52947;50.842;6.084;2023-09-19T00:33:32;16.40;88.49
66144;SHT31;52947;50.842;6.084;2023-09-19T00:36:00;16.50;88.19
66144;SHT31;52947;50.842;6.084;2023-09-19T00:38:32;16.47;87.69
66144;SHT31;52947;50.842;6.084;2023-09-19T00:41:01;16.38;87.50
66144;SHT31;52947;50.842;6.084;2023-09-19T00:43:29;16.23;87.90
66144;SHT31;52947;50.842;6.084;2023-09-19T00:46:01;16.22;87.32
66144;SHT31;52947;50.842;6.084;2023-09-19T00:48:31;16.16;87.98
66144;SHT31;52947;50.842;6.084;2023-09-19T00:51:02;16.19;88.15
66144;SHT31;52947;50.842;6.084;2023-09-19T00:53:32;16.10;87.46
66144;SHT31;52947;50.842;6.084;2023-09-19T00:56:02;16.08;87.51
66144;SHT31;52947;50.842;6.084;2023-09-19T00:58:32;16.04;87.23
66144;SHT31;52947;50.842;6.084;2023-09-19T01:01:01;16.39;88.88
66144;SHT31;52947;50.842;6.084;2023-09-19T01:03:30;16.52;86.01
66144;SHT31;52947;50.842;6.084;2023-09-19T01:05:59;16.39;85.86
66144;SHT31;52947;50.842;6.084;2023-09-19T01:08:27;16.28;86.45
66144;SHT31;52947;50.842;6.084;2023-09-19T01:11:00;16.15;86.78
66144;SHT31;52947;50.842;6.084;2023-09-19T01:13:35;15.99;87.09
66144;SHT31;52947;50.842;6.084;2023-09-19T01:16:11;15.89;88.40
66144;SHT31;52947;50.842;6.084;2023-09-19T01:18:52;15.98;87.79
66144;SHT31;52947;50.842;6.084;2023-09-19T01:21:26;15.89;87.20
66144;SHT31;52947;50.842;6.084;2023-09-19T01:24:10;16.06;87.87
66144;SHT31;52947;50.842;6.084;2023-09-19T01:26:56;15.82;87.36
66144;SHT31;52947;50.842;6.084;2023-09-19T01:29:38;15.78;87.55
66144;SHT31;52947;50.842;6.084;2023-09-19T01:32:08;15.71;88.59
66144;SHT31;52947;50.842;6.084;2023-09-19T01:34:50;15.67;87.72
66144;SHT31;52947;50.842;6.084;2023-09-19T01:37:20;15.61;87.88
66144;SHT31;52947;50.842;6.084;2023-09-19T01:39:57;15.51;88.15
66144;SHT31;52947;50.842;6.084;2023-09-19T01:42:37;15.57;88.24
66144;SHT31;52947;50.842;6.084;2023-09-19T01:45:11;15.48;88.42
66144;SHT31;52947;50.842;6.084;2023-09-19T01:47:46;15.54;88.54
66144;SHT31;52947;50.842;6.084;2023-09-19T01:50:20;15.58;88.15
66144;SHT31;52947;50.842;6.084;2023-09-19T01:52:56;15.47;87.69
66144;SHT31;52947;50.842;6.084;2023-09-19T01:55:26;15.87;87.56
66144;SHT31;52947;50.842;6.084;2023-09-19T01:58:01;15.99;87.40
66144;SHT31;52947;50.842;6.084;2023-09-19T02:00:34;15.72;87.64
66144;SHT31;52947;50.842;6.084;2023-09-19T02:03:05;15.75;87.18
66144;SHT31;52947;50.842;6.084;2023-09-19T02:05:33;15.53;87.28
66144;SHT31;52947;50.842;6.084;2023-09-19T02:08:01;15.65;88.00
66144;SHT31;52947;50.842;6.084;2023-09-19T02:10:29;15.61;88.01
66144;SHT31;52947;50.842;6.084;2023-09-19T02:12:58;15.48;87.68
66144;SHT31;52947;50.842;6.084;2023-09-19T02:15:27;15.43;88.33
66144;SHT31;52947;50.842;6.084;2023-09-19T02:17:54;15.33;88.97
66144;SHT31;52947;50.842;6.084;2023-09-19T02:20:25;15.10;88.62
66144;SHT31;52947;50.842;6.084;2023-09-19T02:22:53;15.16;89.41
66144;SHT31;52947;50.842;6.084;2023-09-19T02:25:21;15.19;89.26
66144;SHT31;52947;50.842;6.084;2023-09-19T02:27:49;15.19;89.47
66144;SHT31;52947;50.842;6.084;2023-09-19T02:30:20;15.27;89.81
66144;SHT31;52947;50.842;6.084;2023-09-19T02:32:52;15.07;89.01
66144;SHT31;52947;50.842;6.084;2023-09-19T02:35:20;15.04;88.78
66144;SHT31;52947;50.842;6.084;2023-09-19T02:37:50;15.00;89.35
66144;SHT31;52947;50.842;6.084;2023-09-19T02:40:18;14.99;88.70
66144;SHT31;52947;50.842;6.084;2023-09-19T02:42:47;15.04;89.05
66144;SHT31;52947;50.842;6.084;2023-09-19T02:45:16;15.03;88.70
66144;SHT31;52947;50.842;6.084;2023-09-19T02:47:47;14.93;88.82
66144;SHT31;52947;50.842;6.084;2023-09-19T02:50:16;14.83;89.20
66144;SHT31;52947;50.842;6.084;2023-09-19T02:52:45;14.73;89.06
66144;SHT31;52947;50.842;6.084;2023-09-19T02:55:18;14.79;88.43
66144;SHT31;52947;50.842;6.084;2023-09-19T02:57:47;14.93;89.62
66144;SHT31;52947;50.842;6.084;2023-09-19T03:00:16;14.90;88.69
66144;SHT31;52947;50.842;6.084;2023-09-19T03:02:47;14.82;88.95
66144;SHT31;52947;50.842;6.084;2023-09-19T03:05:16;14.73;88.55
66144;SHT31;52947;50.842;6.084;2023-09-19T03:07:44;14.85;88.76
66144;SHT31;52947;50.842;6.084;2023-09-19T03:10:13;14.68;89.11
66144;SHT31;52947;50.842;6.084;2023-09-19T03:12:44;14.68;88.91
66144;SHT31;52947;50.842;6.084;2023-09-19T03:15:12;14.82;88.80
66144;SHT31;52947;50.842;6.084;2023-09-19T03:17:44;14.85;88.54
66144;SHT31;52947;50.842;6.084;2023-09-19T03:20:12;14.86;88.29
66144;SHT31;52947;50.842;6.084;2023-09-19T03:22:46;14.90;87.96
66144;SHT31;52947;50.842;6.084;2023-09-19T03:25:16;14.89;88.89
66144;SHT31;52947;50.842;6.084;2023-09-19T03:27:50;14.93;88.84
66144;SHT31;52947;50.842;6.084;2023-09-19T03:30:20;14.86;88.51
66144;SHT31;52947;50.842;6.084;2023-09-19T03:32:49;14.92;88.00
66144;SHT31;52947;50.842;6.084;2023-09-19T03:35:18;14.76;88.04
66144;SHT31;52947;50.842;6.084;2023-09-19T03:37:47;14.69;88.39
66144;SHT31;52947;50.842;6.084;2023-09-19T03:40:16;14.83;88.40
66144;SHT31;52947;50.842;6.084;2023-09-19T03:42:47;14.79;87.94
66144;SHT31;52947;50.842;6.084;2023-09-19T03:45:16;14.75;88.07
66144;SHT31;52947;50.842;6.084;2023-09-19T03:47:50;14.92;88.58
66144;SHT31;52947;50.842;6.084;2023-09-19T03:50:21;14.71;88.01
66144;SHT31;52947;50.842;6.084;2023-09-19T03:52:50;14.73;88.36
66144;SHT31;52947;50.842;6.084;2023-09-19T03:55:18;14.58;88.29
66144;SHT31;52947;50.842;6.084;2023-09-19T03:57:48;14.61;87.66
66144;SHT31;52947;50.842;6.084;2023-09-19T04:00:18;14.77;87.70
66144;SHT31;52947;50.842;6.084;2023-09-19T04:02:48;14.62;88.15
66144;SHT31;52947;50.842;6.084;2023-09-19T04:05:16;14.49;87.74
66144;SHT31;52947;50.842;6.084;2023-09-19T04:07:45;14.48;88.04
66144;SHT31;52947;50.842;6.084;2023-09-19T04:10:13;14.52;88.56
66144;SHT31;52947;50.842;6.084;2023-09-19T04:12:50;14.59;88.11
66144;SHT31;52947;50.842;6.084;2023-09-19T04:15:20;14.85;87.60
66144;SHT31;52947;50.842;6.084;2023-09-19T04:17:51;14.68;88.96
66144;SHT31;52947;50.842;6.084;2023-09-19T04:20:20;14.69;88.15
66144;SHT31;52947;50.842;6.084;2023-09-19T04:22:49;14.73;88.00
66144;SHT31;52947;50.842;6.084;2023-09-19T04:25:17;14.56;87.50
66144;SHT31;52947;50.842;6.084;2023-09-19T04:27:45;14.44;88.43
66144;SHT31;52947;50.842;6.084;2023-09-19T04:30:14;14.36;88.42
66144;SHT31;52947;50.842;6.084;2023-09-19T04:32:44;14.32;88.37
66144;SHT31;52947;50.842;6.084;2023-09-19T04:35:18;14.39;88.05
66144;SHT31;52947;50.842;6.084;2023-09-19T04:37:46;14.31;88.51
66144;SHT31;52947;50.842;6.084;2023-09-19T04:40:15;14.35;88.30
66144;SHT31;52947;50.842;6.084;2023-09-19T04:42:45;14.55;88.77
66144;SHT31;52947;50.842;6.084;2023-09-19T04:45:13;14.51;88.32
66144;SHT31;52947;50.842;6.084;2023-09-19T04:47:43;14.59;87.97
66144;SHT31;52947;50.842;6.084;2023-09-19T04:50:13;14.54;88.27
66144;SHT31;52947;50.842;6.084;2023-09-19T04:52:41;14.58;88.18
66144;SHT31;52947;50.842;6.084;2023-09-19T04:55:13;14.46;88.00
66144;SHT31;52947;50.842;6.084;2023-09-19T04:57:44;14.65;88.93
66144;SHT31;52947;50.842;6.084;2023-09-19T05:00:13;14.58;88.27
66144;SHT31;52947;50.842;6.084;2023-09-19T05:02:45;14.49;88.03
66144;SHT31;52947;50.842;6.084;2023-09-19T05:05:13;14.54;88.94
66144;SHT31;52947;50.842;6.084;2023-09-19T05:07:44;14.41;88.66
66144;SHT31;52947;50.842;6.084;2023-09-19T05:10:12;14.38;88.92
66144;SHT31;52947;50.842;6.084;2023-09-19T05:12:41;14.31;88.67
66144;SHT31;52947;50.842;6.084;2023-09-19T05:15:11;14.39;89.37
66144;SHT31;52947;50.842;6.084;2023-09-19T05:17:39;14.52;88.54
66144;SHT31;52947;50.842;6.084;2023-09-19T05:20:10;14.34;89.29
66144;SHT31;52947;50.842;6.084;2023-09-19T05:22:40;14.29;89.34
66144;SHT31;52947;50.842;6.084;2023-09-19T05:25:09;14.39;88.78
66144;SHT31;52947;50.842;6.084;2023-09-19T05:27:37;14.32;89.12
66144;SHT31;52947;50.842;6.084;2023-09-19T05:30:06;14.31;88.98
66144;SHT31;52947;50.842;6.084;2023-09-19T05:32:34;14.34;88.88
66144;SHT31;52947;50.842;6.084;2023-09-19T05:35:02;14.25;88.64
66144;SHT31;52947;50.842;6.084;2023-09-19T05:37:36;14.36;88.95
66144;SHT31;52947;50.842;6.084;2023-09-19T05:40:05;14.44;88.59
66144;SHT31;52947;50.842;6.084;2023-09-19T05:42:37;14.38;88.67
66144;SHT31;52947;50.842;6.084;2023-09-19T05:45:06;14.22;89.02
66144;SHT31;52947;50.842;6.084;2023-09-19T05:47:34;14.25;89.33
66144;SHT31;52947;50.842;6.084;2023-09-19T05:50:03;14.29;89.11
66144;SHT31;52947;50.842;6.084;2023-09-19T05:52:32;14.41;89.44
66144;SHT31;52947;50.842;6.084;2023-09-19T05:55:01;14.45;88.58
66144;SHT31;52947;50.842;6.084;2023-09-19T05:57:31;14.55;88.91
66144;SHT31;52947;50.842;6.084;2023-09-19T05:59:59;14.44;88.54
66144;SHT31;52947;50.842;6.084;2023-09-19T06:02:37;14.49;88.67
66144;SHT31;52947;50.842;6.084;2023-09-19T06:05:07;14.46;88.48
66144;SHT31;52947;50.842;6.084;2023-09-19T06:07:37;14.54;88.98
66144;SHT31;52947;50.842;6.084;2023-09-19T06:10:07;14.56;88.59
66144;SHT31;52947;50.842;6.084;2023-09-19T06:12:38;14.71;87.87
66144;SHT31;52947;50.842;6.084;2023-09-19T06:15:06;14.71;88.16
66144;SHT31;52947;50.842;6.084;2023-09-19T06:17:35;14.93;87.89
66144;SHT31;52947;50.842;6.084;2023-09-19T06:20:05;14.87;87.31
66144;SHT31;52947;50.842;6.084;2023-09-19T06:22:39;15.08;87.95
66144;SHT31;52947;50.842;6.084;2023-09-19T06:25:10;15.11;87.14
66144;SHT31;52947;50.842;6.084;2023-09-19T06:27:39;15.22;86.52
66144;SHT31;52947;50.842;6.084;2023-09-19T06:30:10;15.46;85.99
66144;SHT31;52947;50.842;6.084;2023-09-19T06:32:38;15.82;85.88
66144;SHT31;52947;50.842;6.084;2023-09-19T06:35:06;16.02;85.68
66144;SHT31;52947;50.842;6.084;2023-09-19T06:37:35;16.13;84.32
66144;SHT31;52947;50.842;6.084;2023-09-19T06:40:07;16.34;83.73
66144;SHT31;52947;50.842;6.084;2023-09-19T06:42:41;16.49;83.01
66144;SHT31;52947;50.842;6.084;2023-09-19T06:45:11;16.29;83.38
66144;SHT31;52947;50.842;6.084;2023-09-19T06:47:40;16.42;83.26
66144;SHT31;52947;50.842;6.084;2023-09-19T06:50:09;16.18;83.87
66144;SHT31;52947;50.842;6.084;2023-09-19T06:52:40;16.15;84.03
66144;SHT31;52947;50.842;6.084;2023-09-19T06:55:09;15.97;84.82
66144;SHT31;52947;50.842;6.084;2023-09-19T06:57:38;16.02;84.30
66144;SHT31;52947;50.842;6.084;2023-09-19T07:00:09;15.94;84.56
66144;SHT31;52947;50.842;6.084;2023-09-19T07:02:42;16.09;84.61
66144;SHT31;52947;50.842;6.084;2023-09-19T07:05:10;16.20;83.83
66144;SHT31;52947;50.842;6.084;2023-09-19T07:07:38;16.30;83.71
66144;SHT31;52947;50.842;6.084;2023-09-19T07:10:07;16.26;83.04
66144;SHT31;52947;50.842;6.084;2023-09-19T07:12:37;16.42;83.56
66144;SHT31;52947;50.842;6.084;2023-09-19T07:15:09;16.45;83.07
66144;SHT31;52947;50.842;6.084;2023-09-19T07:17:37;16.64;82.26
66144;SHT31;52947;50.842;6.084;2023-09-19T07:20:06;16.63;81.61
66144;SHT31;52947;50.842;6.084;2023-09-19T07:22:35;16.80;81.86
66144;SHT31;52947;50.842;6.084;2023-09-19T07:25:03;17.15;81.03
66144;SHT31;52947;50.842;6.084;2023-09-19T07:27:31;17.35;79.70
66144;SHT31;52947;50.842;6.084;2023-09-19T07:29:59;17.19;80.41
66144;SHT31;52947;50.842;6.084;2023-09-19T07:32:28;17.38;79.93
66144;SHT31;52947;50.842;6.084;2023-09-19T07:34:57;17.73;79.22
66144;SHT31;52947;50.842;6.084;2023-09-19T07:37:25;17.59;78.97
66144;SHT31;52947;50.842;6.084;2023-09-19T07:39:53;17.85;79.06
66144;SHT31;52947;50.842;6.084;2023-09-19T07:42:21;17.90;78.63
66144;SHT31;52947;50.842;6.084;2023-09-19T07:44:49;18.10;78.22
66144;SHT31;52947;50.842;6.084;2023-09-19T07:47:17;18.40;77.25
66144;SHT31;52947;50.842;6.084;2023-09-19T07:49:47;18.71;76.53
66144;SHT31;52947;50.842;6.084;2023-09-19T07:52:15;18.45;76.65
66144;SHT31;52947;50.842;6.084;2023-09-19T07:54:44;18.44;76.34
66144;SHT31;52947;50.842;6.084;2023-09-19T07:57:12;18.55;76.05
66144;SHT31;52947;50.842;6.084;2023-09-19T07:59:41;18.48;76.49
66144;SHT31;52947;50.842;6.084;2023-09-19T08:02:10;18.61;76.01
66144;SHT31;52947;50.842;6.084;2023-09-19T08:04:42;18.26;76.63
66144;SHT31;52947;50.842;6.084;2023-09-19T08:07:14;18.18;76.55
66144;SHT31;52947;50.842;6.084;2023-09-19T08:09:42;18.40;76.25
66144;SHT31;52947;50.842;6.084;2023-09-19T08:12:13;18.50;76.33
66144;SHT31;52947;50.842;6.084;2023-09-19T08:14:42;18.60;75.59
66144;SHT31;52947;50.842;6.084;2023-09-19T08:17:10;18.92;75.36
66144;SHT31;52947;50.842;6.084;2023-09-19T08:19:39;18.92;74.94
66144;SHT31;52947;50.842;6.084;2023-09-19T08:22:08;18.69;75.06
66144;SHT31;52947;50.842;6.084;2023-09-19T08:24:39;18.91;74.83
66144;SHT31;52947;50.842;6.084;2023-09-19T08:27:10;18.96;74.55
66144;SHT31;52947;50.842;6.084;2023-09-19T08:29:39;18.91;74.96
66144;SHT31;52947;50.842;6.084;2023-09-19T08:32:07;18.84;74.63
66144;SHT31;52947;50.842;6.084;2023-09-19T08:34:35;19.22;74.11
66144;SHT31;52947;50.842;6.084;2023-09-19T08:37:05;19.77;73.22
66144;SHT31;52947;50.842;6.084;2023-09-19T08:39:33;20.11;72.20
66144;SHT31;52947;50.842;6.084;2023-09-19T08:42:04;20.03;71.44
66144;SHT31;52947;50.842;6.084;2023-09-19T08:44:36;19.64;72.42
66144;SHT31;52947;50.842;6.084;2023-09-19T08:47:09;19.59;72.31
66144;SHT31;52947;50.842;6.084;2023-09-19T08:49:45;19.59;71.92
66144;SHT31;52947;50.842;6.084;2023-09-19T08:52:20;19.56;72.47
66144;SHT31;52947;50.842;6.084;2023-09-19T08:54:52;20.39;71.35
66144;SHT31;52947;50.842;6.084;2023-09-19T08:57:21;20.11;71.28
66144;SHT31;52947;50.842;6.084;2023-09-19T08:59:51;19.90;72.18
66144;SHT31;52947;50.842;6.084;2023-09-19T09:02:22;19.93;71.66
66144;SHT31;52947;50.842;6.084;2023-09-19T09:04:52;19.88;72.46
66144;SHT31;52947;50.842;6.084;2023-09-19T09:07:21;20.08;71.64
66144;SHT31;52947;50.842;6.084;2023-09-19T09:09:49;20.20;71.62
66144;SHT31;52947;50.842;6.084;2023-09-19T09:12:18;20.59;70.83
66144;SHT31;52947;50.842;6.084;2023-09-19T09:14:47;20.07;71.41
66144;SHT31;52947;50.842;6.084;2023-09-19T09:17:17;19.93;72.22
66144;SHT31;52947;50.842;6.084;2023-09-19T09:19:47;19.95;71.93
66144;SHT31;52947;50.842;6.084;2023-09-19T09:22:15;19.57;72.93
66144;SHT31;52947;50.842;6.084;2023-09-19T09:24:54;20.15;71.76
66144;SHT31;52947;50.842;6.084;2023-09-19T09:27:24;20.87;70.47
66144;SHT31;52947;50.842;6.084;2023-09-19T09:29:54;21.03;69.77
66144;SHT31;52947;50.842;6.084;2023-09-19T09:32:24;20.76;70.17
66144;SHT31;52947;50.842;6.084;2023-09-19T09:34:54;20.44;69.68
66144;SHT31;52947;50.842;6.084;2023-09-19T09:37:28;20.08;69.45
66144;SHT31;52947;50.842;6.084;2023-09-19T09:39:58;20.45;69.79
66144;SHT31;52947;50.842;6.084;2023-09-19T09:42:46;19.94;70.30
66144;SHT31;52947;50.842;6.084;2023-09-19T09:45:18;20.57;69.61
66144;SHT31;52947;50.842;6.084;2023-09-19T09:47:55;19.84;70.56
66144;SHT31;52947;50.842;6.084;2023-09-19T09:50:27;19.73;70.71
66144;SHT31;52947;50.842;6.084;2023-09-19T09:53:20;20.00;70.68
66144;SHT31;52947;50.842;6.084;2023-09-19T09:56:02;20.08;69.42
66144;SHT31;52947;50.842;6.084;2023-09-19T09:58:33;20.38;69.28
66144;SHT31;52947;50.842;6.084;2023-09-19T10:01:04;20.12;69.56
66144;SHT31;52947;50.842;6.084;2023-09-19T10:03:38;20.53;69.23
66144;SHT31;52947;50.842;6.084;2023-09-19T10:06:10;20.04;69.43
66144;SHT31;52947;50.842;6.084;2023-09-19T10:09:02;20.48;69.07
66144;SHT31;52947;50.842;6.084;2023-09-19T10:11:41;19.88;69.67
66144;SHT31;52947;50.842;6.084;2023-09-19T10:14:10;19.77;70.14
66144;SHT31;52947;50.842;6.084;2023-09-19T10:16:45;19.90;69.94
66144;SHT31;52947;50.842;6.084;2023-09-19T10:19:21;19.90;69.44
66144;SHT31;52947;50.842;6.084;2023-09-19T10:21:54;19.77;69.41
66144;SHT31;52947;50.842;6.084;2023-09-19T10:24:23;19.98;69.98
66144;SHT31;52947;50.842;6.084;2023-09-19T10:26:53;20.05;69.81
66144;SHT31;52947;50.842;6.084;2023-09-19T10:29:21;19.81;69.47
66144;SHT31;52947;50.842;6.084;2023-09-19T10:31:52;20.00;69.61
66144;SHT31;52947;50.842;6.084;2023-09-19T10:34:22;19.75;68.92
66144;SHT31;52947;50.842;6.084;2023-09-19T10:36:52;19.67;69.19
66144;SHT31;52947;50.842;6.084;2023-09-19T10:39:20;19.81;69.10
66144;SHT31;52947;50.842;6.084;2023-09-19T10:41:51;19.78;68.96
66144;SHT31;52947;50.842;6.084;2023-09-19T10:44:23;19.78;69.06
66144;SHT31;52947;50.842;6.084;2023-09-19T10:46:53;19.75;68.46
66144;SHT31;52947;50.842;6.084;2023-09-19T10:49:21;19.75;68.01
66144;SHT31;52947;50.842;6.084;2023-09-19T10:51:52;19.73;69.12
66144;SHT31;52947;50.842;6.084;2023-09-19T10:54:23;19.84;69.30
66144;SHT31;52947;50.842;6.084;2023-09-19T10:56:53;19.94;68.70
66144;SHT31;52947;50.842;6.084;2023-09-19T10:59:25;19.85;68.68
66144;SHT31;52947;50.842;6.084;2023-09-19T11:02:17;19.84;67.40
66144;SHT31;52947;50.842;6.084;2023-09-19T11:04:45;19.62;68.16
66144;SHT31;52947;50.842;6.084;2023-09-19T11:07:15;19.47;67.88
66144;SHT31;52947;50.842;6.084;2023-09-19T11:09:45;19.39;68.58
66144;SHT31;52947;50.842;6.084;2023-09-19T11:12:13;19.20;68.86
66144;SHT31;52947;50.842;6.084;2023-09-19T11:15:03;19.26;69.88
66144;SHT31;52947;50.842;6.084;2023-09-19T11:17:36;19.43;69.06
66144;SHT31;52947;50.842;6.084;2023-09-19T11:20:23;19.56;67.97
66144;SHT31;52947;50.842;6.084;2023-09-19T11:23:19;20.08;68.13
66144;SHT31;52947;50.842;6.084;2023-09-19T11:25:53;20.24;66.54
66144;SHT31;52947;50.842;6.084;2023-09-19T11:28:28;20.69;66.09
66144;SHT31;52947;50.842;6.084;2023-09-19T11:30:57;20.59;65.15
66144;SHT31;52947;50.842;6.084;2023-09-19T11:33:28;20.83;64.96
66144;SHT31;52947;50.842;6.084;2023-09-19T11:35:59;20.86;64.39
66144;SHT31;52947;50.842;6.084;2023-09-19T11:38:57;21.06;63.82
66144;SHT31;52947;50.842;6.084;2023-09-19T11:41:38;21.31;63.33
66144;SHT31;52947;50.842;6.084;2023-09-19T11:44:33;21.59;62.82
66144;SHT31;52947;50.842;6.084;2023-09-19T11:47:04;21.57;62.03
66144;SHT31;52947;50.842;6.084;2023-09-19T11:49:35;21.67;61.36
66144;SHT31;52947;50.842;6.084;2023-09-19T11:52:07;21.96;60.50
66144;SHT31;52947;50.842;6.084;2023-09-19T11:54:36;22.45;60.53
66144;SHT31;52947;50.842;6.084;2023-09-19T11:57:08;21.78;61.54
66144;SHT31;52947;50.842;6.084;2023-09-19T11:59:39;21.55;61.41
66144;SHT31;52947;50.842;6.084;2023-09-19T12:02:07;21.86;61.53
66144;SHT31;52947;50.842;6.084;2023-09-19T12:04:40;21.24;61.48
66144;SHT31;52947;50.842;6.084;2023-09-19T12:07:11;21.57;61.34
66144;SHT31;52947;50.842;6.084;2023-09-19T12:09:43;21.96;61.43
66144;SHT31;52947;50.842;6.084;2023-09-19T12:12:19;22.35;60.75
66144;SHT31;52947;50.842;6.084;2023-09-19T12:14:47;21.84;60.59
66144;SHT31;52947;50.842;6.084;2023-09-19T12:17:15;22.43;60.26
66144;SHT31;52947;50.842;6.084;2023-09-19T12:19:51;22.40;60.21
66144;SHT31;52947;50.842;6.084;2023-09-19T12:22:19;22.56;60.59
66144;SHT31;52947;50.842;6.084;2023-09-19T12:24:48;22.02;60.76
66144;SHT31;52947;50.842;6.084;2023-09-19T12:27:17;21.82;62.59
66144;SHT31;52947;50.842;6.084;2023-09-19T12:29:47;22.29;61.27
66144;SHT31;52947;50.842;6.084;2023-09-19T12:32:16;22.25;61.36
66144;SHT31;52947;50.842;6.084;2023-09-19T12:34:54;22.68;60.71
66144;SHT31;52947;50.842;6.084;2023-09-19T12:37:22;23.34;60.12
66144;SHT31;52947;50.842;6.084;2023-09-19T12:40:04;23.17;59.98
66144;SHT31;52947;50.842;6.084;2023-09-19T12:42:43;22.83;60.09
66144;SHT31;52947;50.842;6.084;2023-09-19T12:45:11;22.76;60.31
66144;SHT31;52947;50.842;6.084;2023-09-19T12:48:17;22.77;60.53
66144;SHT31;52947;50.842;6.084;2023-09-19T12:51:05;22.01;61.36
66144;SHT31;52947;50.842;6.084;2023-09-19T12:53:36;21.77;62.77
66144;SHT31;52947;50.842;6.084;2023-09-19T12:56:08;21.67;62.78
66144;SHT31;52947;50.842;6.084;2023-09-19T12:58:47;21.41;63.43
66144;SHT31;52947;50.842;6.084;2023-09-19T13:01:16;21.17;63.50
66144;SHT31;52947;50.842;6.084;2023-09-19T13:03:44;21.06;64.43
66144;SHT31;52947;50.842;6.084;2023-09-19T13:06:14;21.06;64.72
66144;SHT31;52947;50.842;6.084;2023-09-19T13:08:44;20.99;64.66
66144;SHT31;52947;50.842;6.084;2023-09-19T13:11:20;20.79;65.02
66144;SHT31;52947;50.842;6.084;2023-09-19T13:13:50;20.49;66.13
66144;SHT31;52947;50.842;6.084;2023-09-19T13:16:21;20.26;66.76
66144;SHT31;52947;50.842;6.084;2023-09-19T13:18:52;20.08;67.40
66144;SHT31;52947;50.842;6.084;2023-09-19T13:21:30;20.00;67.75
66144;SHT31;52947;50.842;6.084;2023-09-19T13:24:22;19.91;67.88
66144;SHT31;52947;50.842;6.084;2023-09-19T13:26:52;19.84;68.25
66144;SHT31;52947;50.842;6.084;2023-09-19T13:29:21;19.87;68.84
66144;SHT31;52947;50.842;6.084;2023-09-19T13:31:49;19.85;68.33
66144;SHT31;52947;50.842;6.084;2023-09-19T13:34:20;19.81;67.72
66144;SHT31;52947;50.842;6.084;2023-09-19T13:36:49;19.74;68.46
66144;SHT31;52947;50.842;6.084;2023-09-19T13:39:17;19.70;68.93
66144;SHT31;52947;50.842;6.084;2023-09-19T13:41:46;19.64;68.99
66144;SHT31;52947;50.842;6.084;2023-09-19T13:44:15;19.85;68.29
66144;SHT31;52947;50.842;6.084;2023-09-19T13:46:44;19.85;68.35
66144;SHT31;52947;50.842;6.084;2023-09-19T13:49:14;19.85;67.81
66144;SHT31;52947;50.842;6.084;2023-09-19T13:51:42;19.90;68.22
66144;SHT31;52947;50.842;6.084;2023-09-19T13:54:12;20.03;67.68
66144;SHT31;52947;50.842;6.084;2023-09-19T13:56:41;20.03;67.59
66144;SHT31;52947;50.842;6.084;2023-09-19T13:59:09;20.34;66.58
66144;SHT31;52947;50.842;6.084;2023-09-19T14:01:37;20.39;66.86
66144;SHT31;52947;50.842;6.084;2023-09-19T14:04:06;20.24;67.32
66144;SHT31;52947;50.842;6.084;2023-09-19T14:06:34;20.22;67.56
66144;SHT31;52947;50.842;6.084;2023-09-19T14:09:04;20.24;67.94
66144;SHT31;52947;50.842;6.084;2023-09-19T14:11:33;20.45;67.89
66144;SHT31;52947;50.842;6.084;2023-09-19T14:14:02;20.51;67.72
66144;SHT31;52947;50.842;6.084;2023-09-19T14:16:31;20.36;67.96
66144;SHT31;52947;50.842;6.084;2023-09-19T14:19:00;20.01;67.72
66144;SHT31;52947;50.842;6.084;2023-09-19T14:21:28;19.98;67.97
66144;SHT31;52947;50.842;6.084;2023-09-19T14:23:56;19.85;68.54
66144;SHT31;52947;50.842;6.084;2023-09-19T14:26:24;19.87;68.29
66144;SHT31;52947;50.842;6.084;2023-09-19T14:28:53;19.78;68.73
66144;SHT31;52947;50.842;6.084;2023-09-19T14:31:21;19.88;69.41
66144;SHT31;52947;50.842;6.084;2023-09-19T14:33:53;19.91;68.96
66144;SHT31;52947;50.842;6.084;2023-09-19T14:36:22;19.73;68.91
66144;SHT31;52947;50.842;6.084;2023-09-19T14:38:52;19.50;69.29
66144;SHT31;52947;50.842;6.084;2023-09-19T14:41:21;19.54;69.21
66144;SHT31;52947;50.842;6.084;2023-09-19T14:43:54;19.69;69.16
66144;SHT31;52947;50.842;6.084;2023-09-19T14:46:22;19.73;68.97
66144;SHT31;52947;50.842;6.084;2023-09-19T14:48:52;19.67;69.30
66144;SHT31;52947;50.842;6.084;2023-09-19T14:51:20;19.66;69.82
66144;SHT31;52947;50.842;6.084;2023-09-19T14:53:48;19.78;69.31
66144;SHT31;52947;50.842;6.084;2023-09-19T14:56:16;19.77;69.26
66144;SHT31;52947;50.842;6.084;2023-09-19T14:58:47;19.59;69.26
66144;SHT31;52947;50.842;6.084;2023-09-19T15:01:16;19.56;69.89
66144;SHT31;52947;50.842;6.084;2023-09-19T15:03:44;19.50;69.87
66144;SHT31;52947;50.842;6.084;2023-09-19T15:06:13;19.64;69.37
66144;SHT31;52947;50.842;6.084;2023-09-19T15:08:44;19.64;69.81
66144;SHT31;52947;50.842;6.084;2023-09-19T15:11:14;19.73;69.52
66144;SHT31;52947;50.842;6.084;2023-09-19T15:13:45;19.71;70.07
66144;SHT31;52947;50.842;6.084;2023-09-19T15:16:13;19.75;70.01
66144;SHT31;52947;50.842;6.084;2023-09-19T15:18:44;19.80;70.57
66144;SHT31;52947;50.842;6.084;2023-09-19T15:21:15;19.74;70.37
66144;SHT31;52947;50.842;6.084;2023-09-19T15:23:43;19.69;70.20
66144;SHT31;52947;50.842;6.084;2023-09-19T15:26:14;19.66;69.84
66144;SHT31;52947;50.842;6.084;2023-09-19T15:28:44;19.56;69.72
66144;SHT31;52947;50.842;6.084;2023-09-19T15:31:13;19.49;69.50
66144;SHT31;52947;50.842;6.084;2023-09-19T15:33:42;19.42;69.93
66144;SHT31;52947;50.842;6.084;2023-09-19T15:36:11;19.34;70.51
66144;SHT31;52947;50.842;6.084;2023-09-19T15:38:56;19.27;70.82
66144;SHT31;52947;50.842;6.084;2023-09-19T15:41:25;19.30;70.89
66144;SHT31;52947;50.842;6.084;2023-09-19T15:43:53;19.34;70.82
66144;SHT31;52947;50.842;6.084;2023-09-19T15:46:22;19.32;70.05
66144;SHT31;52947;50.842;6.084;2023-09-19T15:48:51;19.32;70.52
66144;SHT31;52947;50.842;6.084;2023-09-19T15:51:19;19.33;70.54
66144;SHT31;52947;50.842;6.084;2023-09-19T15:53:53;19.32;70.81